createdAt,value
2019-02-19T00:00:26.097Z,1009.08
2019-02-19T00:02:19.122Z,1009.01
2019-02-19T00:03:19.135Z,1009.04
2019-02-19T00:05:12.113Z,1009.02
2019-02-19T00:06:12.170Z,1009.04
2019-02-19T00:08:05.200Z,1009.04
2019-02-19T00:09:05.206Z,1009.05
2019-02-19T00:10:58.185Z,1009.07
2019-02-19T00:11:58.240Z,1009.07
2019-02-19T00:13:51.223Z,1009.07
2019-02-19T00:14:51.274Z,1009.06
2019-02-19T00:16:44.252Z,1009.09
2019-02-19T00:17:44.309Z,1009.12
2019-02-19T00:19:37.304Z,1009.12
2019-02-19T00:20:37.343Z,1009.07
2019-02-19T00:22:30.331Z,1009.12
2019-02-19T00:23:30.391Z,1009.12
2019-02-19T00:25:23.361Z,1009.14
2019-02-19T00:26:23.422Z,1009.07
2019-02-19T00:28:16.406Z,1009.05
2019-02-19T00:29:16.460Z,1009.06
2019-02-19T00:31:09.445Z,1009.06
2019-02-19T00:32:09.500Z,1009.09
2019-02-19T00:34:02.502Z,1009.03
2019-02-19T00:35:02.540Z,1009.11
2019-02-19T00:36:55.519Z,1009.07
2019-02-19T00:37:55.571Z,1009.10
2019-02-19T00:39:48.569Z,1009.09
2019-02-19T00:40:48.607Z,1009.10
2019-02-19T00:42:41.596Z,1009.14
2019-02-19T00:43:41.646Z,1009.13
2019-02-19T00:45:34.625Z,1009.15
2019-02-19T00:46:34.680Z,1009.11
2019-02-19T00:48:27.668Z,1009.11
2019-02-19T00:49:27.720Z,1009.15
2019-02-19T00:51:20.704Z,1009.15
2019-02-19T00:52:20.758Z,1009.10
2019-02-19T00:54:14.246Z,1009.13
2019-02-19T00:55:14.306Z,1009.11
2019-02-19T00:57:07.269Z,1009.10
2019-02-19T00:58:07.326Z,1009.11
2019-02-19T01:00:00.314Z,1009.08
2019-02-19T01:01:00.358Z,1009.15
2019-02-19T01:02:53.348Z,1009.12
2019-02-19T01:03:53.391Z,1009.09
2019-02-19T01:05:46.370Z,1009.09
2019-02-19T01:06:46.427Z,1009.12
2019-02-19T01:08:39.416Z,1009.09
2019-02-19T01:09:39.462Z,1009.11
2019-02-19T01:11:32.439Z,1009.15
2019-02-19T01:12:32.496Z,1009.12
2019-02-19T01:14:25.485Z,1009.16
2019-02-19T01:15:25.864Z,1009.17
2019-02-19T01:17:18.520Z,1009.15
2019-02-19T01:18:18.575Z,1009.17
2019-02-19T01:20:11.563Z,1009.18
2019-02-19T01:21:11.613Z,1009.20
2019-02-19T01:23:05.092Z,1009.22
2019-02-19T01:24:05.152Z,1009.20
2019-02-19T01:25:58.155Z,1009.24
2019-02-19T01:26:58.182Z,1009.24
2019-02-19T01:28:51.166Z,1009.22
2019-02-19T01:29:51.216Z,1009.24
2019-02-19T01:31:44.193Z,1009.26
2019-02-19T01:32:44.249Z,1009.26
2019-02-19T01:34:37.235Z,1009.23
2019-02-19T01:35:37.282Z,1009.26
2019-02-19T01:37:30.280Z,1009.21
2019-02-19T01:38:30.342Z,1009.26
2019-02-19T01:40:23.834Z,1009.25
2019-02-19T01:41:23.883Z,1009.26
2019-02-19T01:43:16.863Z,1009.30
2019-02-19T01:44:16.919Z,1009.25
2019-02-19T01:46:09.907Z,1009.26
2019-02-19T01:47:09.955Z,1009.32
2019-02-19T01:49:02.935Z,1009.29
2019-02-19T01:50:02.983Z,1009.25
2019-02-19T01:51:55.964Z,1009.26
2019-02-19T01:52:56.018Z,1009.23
2019-02-19T01:54:49.005Z,1009.25
2019-02-19T01:55:49.053Z,1009.21
2019-02-19T01:57:42.042Z,1009.21
2019-02-19T01:58:42.109Z,1009.16
2019-02-19T02:00:35.085Z,1009.21
2019-02-19T02:01:35.134Z,1009.24
2019-02-19T02:03:28.109Z,1009.13
2019-02-19T02:04:28.165Z,1009.15
2019-02-19T02:06:21.155Z,1009.12
2019-02-19T02:07:21.202Z,1009.02
2019-02-19T02:09:14.186Z,1009.08
2019-02-19T02:10:14.232Z,1009.10
2019-02-19T02:12:07.259Z,1009.12
2019-02-19T02:13:07.312Z,1009.12
2019-02-19T02:15:00.295Z,1009.11
2019-02-19T02:16:00.348Z,1009.11
2019-02-19T02:17:53.325Z,1009.10
2019-02-19T02:18:53.380Z,1009.11
2019-02-19T02:20:46.351Z,1009.10
2019-02-19T02:21:46.416Z,1009.10
2019-02-19T02:23:39.400Z,1009.09
2019-02-19T02:24:39.440Z,1009.05
2019-02-19T02:26:32.423Z,1009.08
2019-02-19T02:27:32.478Z,1009.09
2019-02-19T02:29:25.472Z,1009.15
2019-02-19T02:30:25.508Z,1009.17
2019-02-19T02:32:18.489Z,1009.18
2019-02-19T02:33:18.541Z,1009.17
2019-02-19T02:35:11.535Z,1009.19
2019-02-19T02:36:11.575Z,1009.23
2019-02-19T02:38:04.557Z,1009.21
2019-02-19T02:39:04.613Z,1009.22
2019-02-19T02:40:58.107Z,1009.16
2019-02-19T02:41:58.156Z,1009.17
2019-02-19T02:43:51.137Z,1009.18
2019-02-19T02:44:51.190Z,1009.15
2019-02-19T02:46:44.180Z,1009.19
2019-02-19T02:47:44.230Z,1009.19
2019-02-19T02:49:37.204Z,1009.17
2019-02-19T02:50:37.260Z,1009.18
2019-02-19T02:52:30.246Z,1009.20
2019-02-19T02:53:30.293Z,1009.22
2019-02-19T02:55:23.280Z,1009.21
2019-02-19T02:56:23.327Z,1009.27
2019-02-19T02:58:16.319Z,1009.27
2019-02-19T02:59:16.368Z,1009.28
2019-02-19T03:01:09.359Z,1009.28
2019-02-19T03:02:09.410Z,1009.28
2019-02-19T03:04:02.406Z,1009.29
2019-02-19T03:05:02.464Z,1009.25
2019-02-19T03:06:55.454Z,1009.27
2019-02-19T03:07:55.506Z,1009.27
2019-02-19T03:09:48.501Z,1009.27
2019-02-19T03:10:48.541Z,1009.33
2019-02-19T03:12:41.552Z,1009.32
2019-02-19T03:13:41.579Z,1009.36
2019-02-19T03:15:34.565Z,1009.36
2019-02-19T03:16:34.633Z,1009.34
2019-02-19T03:18:27.591Z,1009.34
2019-02-19T03:19:27.647Z,1009.34
2019-02-19T03:21:20.637Z,1009.40
2019-02-19T03:22:20.682Z,1009.41
2019-02-19T03:24:13.663Z,1009.41
2019-02-19T03:25:13.720Z,1009.39
2019-02-19T03:27:06.705Z,1009.46
2019-02-19T03:28:06.755Z,1009.48
2019-02-19T03:29:59.731Z,1009.48
2019-02-19T03:30:59.824Z,1009.49
2019-02-19T03:32:52.777Z,1009.50
2019-02-19T03:33:52.838Z,1009.46
2019-02-19T03:35:45.806Z,1009.47
2019-02-19T03:36:45.856Z,1009.46
2019-02-19T03:38:38.835Z,1009.49
2019-02-19T03:39:38.897Z,1009.48
2019-02-19T03:41:31.874Z,1009.47
2019-02-19T03:42:31.925Z,1009.48
2019-02-19T03:44:24.916Z,1009.49
2019-02-19T03:45:24.966Z,1009.50
2019-02-19T03:47:17.955Z,1009.50
2019-02-19T03:48:18.016Z,1009.51
2019-02-19T03:50:11.004Z,1009.47
2019-02-19T03:51:11.062Z,1009.52
2019-02-19T03:53:04.052Z,1009.60
2019-02-19T03:54:04.098Z,1009.60
2019-02-19T03:55:57.083Z,1009.67
2019-02-19T03:56:57.134Z,1009.71
2019-02-19T03:58:50.113Z,1009.71
2019-02-19T03:59:50.187Z,1009.71
2019-02-19T04:01:43.162Z,1009.72
2019-02-19T04:02:43.205Z,1009.71
2019-02-19T04:04:36.191Z,1009.70
2019-02-19T04:05:36.247Z,1009.72
2019-02-19T04:07:29.231Z,1009.68
2019-02-19T04:08:29.284Z,1009.70
2019-02-19T04:10:22.259Z,1009.67
2019-02-19T04:11:22.319Z,1009.65
2019-02-19T04:13:15.305Z,1009.66
2019-02-19T04:14:15.356Z,1009.64
2019-02-19T04:16:08.344Z,1009.62
2019-02-19T04:17:08.393Z,1009.62
2019-02-19T04:19:01.371Z,1009.69
2019-02-19T04:20:01.424Z,1009.67
2019-02-19T04:21:54.414Z,1009.65
2019-02-19T04:22:54.461Z,1009.64
2019-02-19T04:24:47.447Z,1009.73
2019-02-19T04:25:47.500Z,1009.70
2019-02-19T04:27:40.482Z,1009.67
2019-02-19T04:28:40.535Z,1009.69
2019-02-19T04:30:33.522Z,1009.69
2019-02-19T04:31:33.569Z,1009.65
2019-02-19T04:33:26.548Z,1009.67
2019-02-19T04:34:26.616Z,1009.70
2019-02-19T04:36:19.586Z,1009.74
2019-02-19T04:37:19.636Z,1009.75
2019-02-19T04:39:12.611Z,1009.76
2019-02-19T04:40:12.668Z,1009.79
2019-02-19T04:42:05.650Z,1009.80
2019-02-19T04:43:05.706Z,1009.79
2019-02-19T04:44:58.679Z,1009.77
2019-02-19T04:45:58.737Z,1009.81
2019-02-19T04:47:51.727Z,1009.83
2019-02-19T04:48:51.783Z,1009.86
2019-02-19T04:50:44.755Z,1009.79
2019-02-19T04:51:44.812Z,1009.80
2019-02-19T04:53:37.792Z,1009.80
2019-02-19T04:54:37.841Z,1009.78
2019-02-19T04:56:30.829Z,1009.79
2019-02-19T04:57:30.873Z,1009.79
2019-02-19T04:59:23.851Z,1009.68
2019-02-19T05:00:23.912Z,1009.81
2019-02-19T05:02:16.899Z,1009.91
2019-02-19T05:03:16.947Z,1009.94
2019-02-19T05:05:09.933Z,1009.98
2019-02-19T05:06:09.984Z,1009.97
2019-02-19T05:08:02.966Z,1010.04
2019-02-19T05:09:03.021Z,1010.00
2019-02-19T05:10:55.993Z,1010.03
2019-02-19T05:11:56.048Z,1009.99
2019-02-19T05:13:49.041Z,1009.81
2019-02-19T05:14:49.091Z,1009.89
2019-02-19T05:16:42.079Z,1009.90
2019-02-19T05:17:42.129Z,1009.86
2019-02-19T05:19:35.102Z,1009.93
2019-02-19T05:20:35.156Z,1009.97
2019-02-19T05:22:28.146Z,1009.86
2019-02-19T05:23:28.190Z,1009.83
2019-02-19T05:25:21.170Z,1009.87
2019-02-19T05:26:21.230Z,1009.89
2019-02-19T05:28:14.211Z,1009.94
2019-02-19T05:29:14.261Z,1009.91
2019-02-19T05:31:07.254Z,1009.94
2019-02-19T05:32:07.299Z,1009.98
2019-02-19T05:34:00.307Z,1010.06
2019-02-19T05:35:00.333Z,1010.00
2019-02-19T05:36:53.319Z,1010.02
2019-02-19T05:37:53.369Z,1010.04
2019-02-19T05:39:46.354Z,1010.10
2019-02-19T05:40:46.403Z,1010.16
2019-02-19T05:42:39.386Z,1010.07
2019-02-19T05:43:39.439Z,1010.06
2019-02-19T05:45:32.417Z,1009.99
2019-02-19T05:46:32.474Z,1010.06
2019-02-19T05:48:25.460Z,1010.03
2019-02-19T05:49:25.514Z,1010.04
2019-02-19T05:51:18.490Z,1010.04
2019-02-19T05:52:18.546Z,1010.08
2019-02-19T05:54:11.535Z,1010.10
2019-02-19T05:55:11.586Z,1010.08
2019-02-19T05:57:04.565Z,1010.09
2019-02-19T05:58:04.617Z,1010.10
2019-02-19T05:59:57.593Z,1010.12
2019-02-19T06:00:57.652Z,1010.11
2019-02-19T06:02:50.639Z,1010.14
2019-02-19T06:03:50.685Z,1010.13
2019-02-19T06:05:43.685Z,1010.15
2019-02-19T06:06:43.718Z,1010.10
2019-02-19T06:08:36.704Z,1010.09
2019-02-19T06:09:36.771Z,1010.10
2019-02-19T06:11:29.746Z,1010.10
2019-02-19T06:12:29.802Z,1010.15
2019-02-19T06:14:22.783Z,1010.14
2019-02-19T06:15:22.832Z,1010.22
2019-02-19T06:17:15.814Z,1010.23
2019-02-19T06:18:15.876Z,1010.22
2019-02-19T06:20:08.843Z,1010.17
2019-02-19T06:21:08.897Z,1010.23
2019-02-19T06:23:01.886Z,1010.23
2019-02-19T06:24:01.946Z,1010.30
2019-02-19T06:25:54.922Z,1010.34
2019-02-19T06:26:54.962Z,1010.34
2019-02-19T06:28:47.944Z,1010.38
2019-02-19T06:29:47.994Z,1010.37
2019-02-19T06:31:40.970Z,1010.40
2019-02-19T06:32:41.027Z,1010.47
2019-02-19T06:34:34.009Z,1010.47
2019-02-19T06:35:34.074Z,1010.48
2019-02-19T06:37:27.039Z,1010.50
2019-02-19T06:38:27.089Z,1010.49
2019-02-19T06:40:20.065Z,1010.49
2019-02-19T06:41:20.124Z,1010.54
2019-02-19T06:43:13.110Z,1010.52
2019-02-19T06:44:13.158Z,1010.50
2019-02-19T06:46:06.136Z,1010.55
2019-02-19T06:47:07.067Z,1010.60
2019-02-19T06:48:59.181Z,1010.59
2019-02-19T06:49:59.228Z,1010.60
2019-02-19T06:51:52.204Z,1010.58
2019-02-19T06:52:52.258Z,1010.66
2019-02-19T06:54:45.246Z,1010.70
2019-02-19T06:55:45.292Z,1010.71
2019-02-19T06:57:38.283Z,1010.73
2019-02-19T06:58:38.335Z,1010.73
2019-02-19T07:00:31.310Z,1010.75
2019-02-19T07:01:31.363Z,1010.72
2019-02-19T07:03:24.365Z,1010.83
2019-02-19T07:04:24.401Z,1010.80
2019-02-19T07:06:17.380Z,1010.84
2019-02-19T07:07:17.453Z,1010.88
2019-02-19T07:09:10.435Z,1010.95
2019-02-19T07:10:10.481Z,1010.98
2019-02-19T07:12:03.463Z,1011.04
2019-02-19T07:13:03.522Z,1011.00
2019-02-19T07:14:56.504Z,1010.99
2019-02-19T07:15:56.553Z,1011.03
2019-02-19T07:17:49.538Z,1011.06
2019-02-19T07:18:49.591Z,1011.04
2019-02-19T07:20:42.564Z,1011.14
2019-02-19T07:21:42.708Z,1011.09
2019-02-19T07:23:35.604Z,1011.08
2019-02-19T07:24:35.650Z,1011.09
2019-02-19T07:26:28.632Z,1011.10
2019-02-19T07:27:28.685Z,1011.10
2019-02-19T07:29:21.673Z,1011.12
2019-02-19T07:30:21.716Z,1011.12
2019-02-19T07:32:14.695Z,1011.14
2019-02-19T07:33:14.759Z,1011.16
2019-02-19T07:35:07.743Z,1011.23
2019-02-19T07:36:07.782Z,1011.25
2019-02-19T07:38:00.768Z,1011.24
2019-02-19T07:39:00.831Z,1011.22
2019-02-19T07:40:53.806Z,1011.32
2019-02-19T07:41:53.863Z,1011.28
2019-02-19T07:43:46.850Z,1011.29
2019-02-19T07:44:46.896Z,1011.33
2019-02-19T07:46:39.877Z,1011.35
2019-02-19T07:47:39.933Z,1011.33
2019-02-19T07:49:32.922Z,1011.33
2019-02-19T07:50:32.972Z,1011.33
2019-02-19T07:52:25.948Z,1011.39
2019-02-19T07:53:26.005Z,1011.43
2019-02-19T07:55:18.995Z,1011.42
2019-02-19T07:56:19.045Z,1011.45
2019-02-19T07:58:12.030Z,1011.43
2019-02-19T07:59:12.084Z,1011.50
2019-02-19T08:01:05.057Z,1011.56
2019-02-19T08:02:05.114Z,1011.57
2019-02-19T08:03:58.099Z,1011.54
2019-02-19T08:04:58.154Z,1011.53
2019-02-19T08:06:51.125Z,1011.55
2019-02-19T08:07:51.181Z,1011.52
2019-02-19T08:09:44.162Z,1011.55
2019-02-19T08:10:44.216Z,1011.57
2019-02-19T08:12:37.206Z,1011.63
2019-02-19T08:13:37.262Z,1011.58
2019-02-19T08:15:30.291Z,1011.65
2019-02-19T08:16:30.299Z,1011.58
2019-02-19T08:18:25.051Z,1011.61
2019-02-19T08:19:23.340Z,1011.62
2019-02-19T08:21:16.823Z,1011.64
2019-02-19T08:22:16.885Z,1011.63
2019-02-19T08:24:09.862Z,1011.62
2019-02-19T08:25:09.912Z,1011.64
2019-02-19T08:27:02.896Z,1011.62
2019-02-19T08:28:02.947Z,1011.67
2019-02-19T08:29:55.935Z,1011.70
2019-02-19T08:30:55.983Z,1011.67
2019-02-19T08:32:48.986Z,1011.70
2019-02-19T08:33:49.041Z,1011.71
2019-02-19T08:35:42.032Z,1011.77
2019-02-19T08:36:42.076Z,1011.76
2019-02-19T08:38:35.067Z,1011.79
2019-02-19T08:39:35.115Z,1011.79
2019-02-19T08:41:28.095Z,1011.80
2019-02-19T08:42:28.151Z,1011.79
2019-02-19T08:44:21.133Z,1011.75
2019-02-19T08:45:21.187Z,1011.77
2019-02-19T08:47:14.177Z,1011.79
2019-02-19T08:48:14.237Z,1011.76
2019-02-19T08:50:07.224Z,1011.79
2019-02-19T08:51:07.278Z,1011.83
2019-02-19T08:53:00.260Z,1011.84
2019-02-19T08:54:00.310Z,1011.87
2019-02-19T08:55:53.303Z,1011.87
2019-02-19T08:56:53.349Z,1011.82
2019-02-19T08:58:46.339Z,1011.80
2019-02-19T08:59:46.384Z,1011.85
2019-02-19T09:01:39.412Z,1011.81
2019-02-19T09:02:39.429Z,1011.89
2019-02-19T09:04:32.418Z,1011.87
2019-02-19T09:05:32.474Z,1011.89
2019-02-19T09:07:25.449Z,1011.89
2019-02-19T09:08:25.505Z,1011.89
2019-02-19T09:10:18.497Z,1011.88
2019-02-19T09:11:18.553Z,1011.89
2019-02-19T09:13:11.537Z,1011.86
2019-02-19T09:14:11.602Z,1011.90
2019-02-19T09:16:04.578Z,1011.93
2019-02-19T09:17:04.628Z,1011.94
2019-02-19T09:18:57.613Z,1011.96
2019-02-19T09:19:59.527Z,1012.00
2019-02-19T09:21:51.155Z,1011.98
2019-02-19T09:22:51.209Z,1012.03
2019-02-19T09:24:44.199Z,1012.11
2019-02-19T09:25:44.248Z,1012.06
2019-02-19T09:27:37.230Z,1012.06
2019-02-19T09:28:37.286Z,1012.07
2019-02-19T09:30:30.270Z,1012.10
2019-02-19T09:31:30.326Z,1012.05
2019-02-19T09:33:23.301Z,1012.11
2019-02-19T09:34:23.368Z,1012.01
2019-02-19T09:36:16.347Z,1012.10
2019-02-19T09:37:16.399Z,1012.13
2019-02-19T09:39:09.383Z,1012.07
2019-02-19T09:40:09.449Z,1012.09
2019-02-19T09:42:02.416Z,1012.12
2019-02-19T09:43:02.472Z,1012.15
2019-02-19T09:44:55.458Z,1012.13
2019-02-19T09:45:55.510Z,1012.14
2019-02-19T09:47:48.498Z,1012.12
2019-02-19T09:48:48.548Z,1012.15
2019-02-19T09:50:41.541Z,1012.15
2019-02-19T09:51:41.587Z,1012.13
2019-02-19T09:53:34.582Z,1012.18
2019-02-19T09:54:34.637Z,1012.19
2019-02-19T09:56:27.629Z,1012.15
2019-02-19T09:57:27.678Z,1012.11
2019-02-19T09:59:20.667Z,1012.13
2019-02-19T10:00:20.716Z,1012.18
2019-02-19T10:02:13.710Z,1012.21
2019-02-19T10:03:13.759Z,1012.15
2019-02-19T10:05:06.742Z,1012.20
2019-02-19T10:06:06.793Z,1012.18
2019-02-19T10:07:59.789Z,1012.20
2019-02-19T10:08:59.848Z,1012.19
2019-02-19T10:10:52.847Z,1012.19
2019-02-19T10:11:52.885Z,1012.21
2019-02-19T10:13:45.866Z,1012.20
2019-02-19T10:14:45.921Z,1012.23
2019-02-19T10:16:41.618Z,1012.20
2019-02-19T10:17:38.968Z,1012.26
2019-02-19T10:19:31.952Z,1012.20
2019-02-19T10:20:32.004Z,1012.22
2019-02-19T10:22:24.984Z,1012.25
2019-02-19T10:23:25.041Z,1012.21
2019-02-19T10:25:18.033Z,1012.22
2019-02-19T10:26:18.077Z,1012.21
2019-02-19T10:28:11.054Z,1012.20
2019-02-19T10:29:11.114Z,1012.25
2019-02-19T10:31:04.103Z,1012.25
2019-02-19T10:32:05.927Z,1012.23
2019-02-19T10:33:57.130Z,1012.31
2019-02-19T10:34:57.187Z,1012.38
2019-02-19T10:36:50.177Z,1012.35
2019-02-19T10:37:51.727Z,1012.35
2019-02-19T10:39:43.223Z,1012.37
2019-02-19T10:40:43.272Z,1012.34
2019-02-19T10:42:36.262Z,1012.36
2019-02-19T10:43:36.324Z,1012.35
2019-02-19T10:45:29.312Z,1012.37
2019-02-19T10:46:29.361Z,1012.35
2019-02-19T10:48:22.350Z,1012.37
2019-02-19T10:49:22.405Z,1012.36
2019-02-19T10:51:15.399Z,1012.39
2019-02-19T10:52:15.450Z,1012.43
2019-02-19T10:54:08.426Z,1012.45
2019-02-19T10:55:08.484Z,1012.45
2019-02-19T10:57:01.475Z,1012.40
2019-02-19T10:58:01.529Z,1012.39
2019-02-19T10:59:54.513Z,1012.41
2019-02-19T11:00:54.565Z,1012.38
2019-02-19T11:02:47.543Z,1012.46
2019-02-19T11:03:47.600Z,1012.42
2019-02-19T11:05:40.591Z,1012.49
2019-02-19T11:06:40.636Z,1012.48
2019-02-19T11:08:33.624Z,1012.44
2019-02-19T11:09:33.683Z,1012.41
2019-02-19T11:11:26.670Z,1012.44
2019-02-19T11:12:26.723Z,1012.44
2019-02-19T11:14:19.704Z,1012.44
2019-02-19T11:15:19.766Z,1012.41
2019-02-19T11:17:12.748Z,1012.45
2019-02-19T11:18:12.800Z,1012.45
2019-02-19T11:20:05.784Z,1012.44
2019-02-19T11:21:05.836Z,1012.44
2019-02-19T11:22:58.846Z,1012.40
2019-02-19T11:23:58.875Z,1012.37
2019-02-19T11:25:51.865Z,1012.35
2019-02-19T11:26:51.916Z,1012.35
2019-02-19T11:28:44.898Z,1012.30
2019-02-19T11:29:44.957Z,1012.32
2019-02-19T11:31:37.942Z,1012.35
2019-02-19T11:32:37.993Z,1012.34
2019-02-19T11:34:30.977Z,1012.36
2019-02-19T11:35:31.030Z,1012.29
2019-02-19T11:37:24.025Z,1012.31
2019-02-19T11:38:24.066Z,1012.29
2019-02-19T11:40:17.076Z,1012.32
2019-02-19T11:41:17.130Z,1012.32
2019-02-19T11:43:10.112Z,1012.35
2019-02-19T11:44:10.170Z,1012.35
2019-02-19T11:46:03.155Z,1012.41
2019-02-19T11:47:03.205Z,1012.38
2019-02-19T11:48:56.331Z,1012.42
2019-02-19T11:49:56.245Z,1012.38
2019-02-19T11:51:49.235Z,1012.41
2019-02-19T11:52:49.293Z,1012.37
2019-02-19T11:54:42.287Z,1012.33
2019-02-19T11:55:42.349Z,1012.41
2019-02-19T11:57:35.338Z,1012.35
2019-02-19T11:58:35.388Z,1012.38
2019-02-19T12:00:28.378Z,1012.38
2019-02-19T12:01:28.429Z,1012.37
2019-02-19T12:03:21.416Z,1012.36
2019-02-19T12:04:21.469Z,1012.34
2019-02-19T12:06:14.460Z,1012.31
2019-02-19T12:07:14.526Z,1012.26
2019-02-19T12:09:07.503Z,1012.28
2019-02-19T12:10:07.559Z,1012.22
2019-02-19T12:12:00.563Z,1012.23
2019-02-19T12:13:00.598Z,1012.20
2019-02-19T12:14:53.576Z,1012.17
2019-02-19T12:15:53.639Z,1012.19
2019-02-19T12:17:46.624Z,1012.25
2019-02-19T12:18:46.732Z,1012.24
2019-02-19T12:20:39.661Z,1012.20
2019-02-19T12:21:39.708Z,1012.21
2019-02-19T12:23:32.693Z,1012.26
2019-02-19T12:24:32.750Z,1012.27
2019-02-19T12:26:25.744Z,1012.25
2019-02-19T12:27:25.781Z,1012.23
2019-02-19T12:29:18.779Z,1012.24
2019-02-19T12:30:18.828Z,1012.24
2019-02-19T12:32:11.823Z,1012.30
2019-02-19T12:33:11.870Z,1012.30
2019-02-19T12:35:04.847Z,1012.29
2019-02-19T12:36:04.905Z,1012.28
2019-02-19T12:37:57.896Z,1012.25
2019-02-19T12:38:57.944Z,1012.28
2019-02-19T12:40:50.950Z,1012.28
2019-02-19T12:41:50.986Z,1012.22
2019-02-19T12:43:43.962Z,1012.22
2019-02-19T12:44:44.019Z,1012.20
2019-02-19T12:46:37.004Z,1012.18
2019-02-19T12:47:37.058Z,1012.18
2019-02-19T12:49:30.046Z,1012.13
2019-02-19T12:50:30.101Z,1012.09
2019-02-19T12:52:23.088Z,1012.20
2019-02-19T12:53:23.154Z,1012.16
2019-02-19T12:55:16.122Z,1012.14
2019-02-19T12:56:16.181Z,1012.14
2019-02-19T12:58:09.167Z,1012.14
2019-02-19T12:59:09.208Z,1012.17
2019-02-19T13:01:02.217Z,1012.16
2019-02-19T13:02:02.268Z,1012.15
2019-02-19T13:03:55.253Z,1012.18
2019-02-19T13:04:55.313Z,1012.25
2019-02-19T13:06:48.303Z,1012.19
2019-02-19T13:07:48.414Z,1012.17
2019-02-19T13:09:41.387Z,1012.21
2019-02-19T13:10:41.408Z,1012.22
2019-02-19T13:12:34.394Z,1012.23
2019-02-19T13:13:34.437Z,1012.23
2019-02-19T13:15:27.428Z,1012.23
2019-02-19T13:16:27.480Z,1012.21
2019-02-19T13:18:20.471Z,1012.26
2019-02-19T13:19:20.518Z,1012.24
2019-02-19T13:21:16.038Z,1012.22
2019-02-19T13:22:16.082Z,1012.34
2019-02-19T13:24:09.075Z,1012.30
2019-02-19T13:25:09.119Z,1012.27
2019-02-19T13:27:02.113Z,1012.30
2019-02-19T13:28:02.162Z,1012.31
2019-02-19T13:29:55.341Z,1012.32
2019-02-19T13:30:55.439Z,1012.37
2019-02-19T13:32:48.192Z,1012.29
2019-02-19T13:33:48.239Z,1012.40
2019-02-19T13:35:41.226Z,1012.40
2019-02-19T13:36:41.279Z,1012.39
2019-02-19T13:38:34.293Z,1012.34
2019-02-19T13:39:34.344Z,1012.34
2019-02-19T13:41:27.332Z,1012.35
2019-02-19T13:42:27.383Z,1012.36
2019-02-19T13:44:20.363Z,1012.35
2019-02-19T13:45:20.420Z,1012.40
2019-02-19T13:47:13.421Z,1012.37
2019-02-19T13:48:13.471Z,1012.30
2019-02-19T13:50:06.464Z,1012.38
2019-02-19T13:51:06.522Z,1012.39
2019-02-19T13:52:59.501Z,1012.41
2019-02-19T13:53:59.547Z,1012.34
2019-02-19T13:55:52.529Z,1012.39
2019-02-19T13:56:52.596Z,1012.44
2019-02-19T13:58:45.585Z,1012.40
2019-02-19T13:59:45.659Z,1012.43
2019-02-19T14:01:38.624Z,1012.41
2019-02-19T14:02:38.675Z,1012.40
2019-02-19T14:04:31.660Z,1012.34
2019-02-19T14:05:31.749Z,1012.40
2019-02-19T14:07:24.723Z,1012.34
2019-02-19T14:08:24.777Z,1012.36
2019-02-19T14:10:17.746Z,1012.36
2019-02-19T14:11:17.846Z,1012.39
2019-02-19T14:13:10.797Z,1012.40
2019-02-19T14:14:10.831Z,1012.41
2019-02-19T14:16:03.859Z,1012.40
2019-02-19T14:17:03.893Z,1012.41
2019-02-19T14:18:56.883Z,1012.41
2019-02-19T14:19:56.930Z,1012.44
2019-02-19T14:21:49.927Z,1012.43
2019-02-19T14:22:49.983Z,1012.43
2019-02-19T14:24:43.009Z,1012.50
2019-02-19T14:25:43.038Z,1012.53
2019-02-19T14:27:36.029Z,1012.53
2019-02-19T14:28:36.077Z,1012.53
2019-02-19T14:30:29.917Z,1012.53
2019-02-19T14:31:29.972Z,1012.56
2019-02-19T14:33:22.965Z,1012.56
2019-02-19T14:34:23.018Z,1012.59
2019-02-19T14:36:16.002Z,1012.55
2019-02-19T14:37:16.063Z,1012.54
2019-02-19T14:39:09.049Z,1012.61
2019-02-19T14:40:10.473Z,1012.62
2019-02-19T14:42:02.083Z,1012.57
2019-02-19T14:43:02.128Z,1012.59
2019-02-19T14:44:55.132Z,1012.56
2019-02-19T14:45:55.188Z,1012.53
2019-02-19T14:47:48.176Z,1012.53
2019-02-19T14:48:48.225Z,1012.62
2019-02-19T14:50:41.203Z,1012.56
2019-02-19T14:51:41.261Z,1012.51
2019-02-19T14:53:34.277Z,1012.54
2019-02-19T14:54:34.325Z,1012.54
2019-02-19T14:56:27.303Z,1012.53
2019-02-19T14:57:27.359Z,1012.55
2019-02-19T14:59:20.354Z,1012.46
2019-02-19T15:00:20.407Z,1012.44
2019-02-19T15:02:13.392Z,1012.43
2019-02-19T15:03:13.438Z,1012.46
2019-02-19T15:05:06.423Z,1012.43
2019-02-19T15:06:06.482Z,1012.48
2019-02-19T15:07:59.469Z,1012.48
2019-02-19T15:08:59.526Z,1012.56
2019-02-19T15:10:52.498Z,1012.58
2019-02-19T15:11:52.561Z,1012.54
2019-02-19T15:13:45.557Z,1012.58
2019-02-19T15:14:45.602Z,1012.49
2019-02-19T15:16:38.579Z,1012.57
2019-02-19T15:17:38.642Z,1012.52
2019-02-19T15:19:38.846Z,1012.54
2019-02-19T15:20:31.676Z,1012.55
2019-02-19T15:22:26.183Z,1012.52
2019-02-19T15:23:26.235Z,1012.57
2019-02-19T15:25:19.212Z,1012.58
2019-02-19T15:26:19.272Z,1012.61
2019-02-19T15:28:12.263Z,1012.55
2019-02-19T15:29:12.314Z,1012.56
2019-02-19T15:31:05.288Z,1012.58
2019-02-19T15:32:06.531Z,1012.59
2019-02-19T15:33:58.337Z,1012.59
2019-02-19T15:34:58.396Z,1012.60
2019-02-19T15:36:51.449Z,1012.61
2019-02-19T15:37:51.427Z,1012.59
2019-02-19T15:39:44.415Z,1012.61
2019-02-19T15:40:44.461Z,1012.58
2019-02-19T15:42:37.456Z,1012.60
2019-02-19T15:43:37.504Z,1012.59
2019-02-19T15:45:30.493Z,1012.59
2019-02-19T15:46:30.547Z,1012.60
2019-02-19T15:48:23.534Z,1012.59
2019-02-19T15:49:23.581Z,1012.64
2019-02-19T15:51:16.560Z,1012.60
2019-02-19T15:52:16.627Z,1012.59
2019-02-19T15:54:09.628Z,1012.62
2019-02-19T15:55:09.667Z,1012.63
2019-02-19T15:57:02.651Z,1012.59
2019-02-19T15:58:04.720Z,1012.61
2019-02-19T15:59:55.713Z,1012.62
2019-02-19T16:00:57.416Z,1012.62
2019-02-19T16:02:48.737Z,1012.62
2019-02-19T16:03:48.790Z,1012.56
2019-02-19T16:05:41.764Z,1012.62
2019-02-19T16:06:41.998Z,1012.60
2019-02-19T16:08:34.809Z,1012.61
2019-02-19T16:09:34.858Z,1012.61
2019-02-19T16:11:27.844Z,1012.65
2019-02-19T16:12:27.903Z,1012.62
2019-02-19T16:14:20.892Z,1012.67
2019-02-19T16:15:20.976Z,1012.63
2019-02-19T16:17:13.939Z,1012.60
2019-02-19T16:18:13.985Z,1012.70
2019-02-19T16:20:06.968Z,1012.66
2019-02-19T16:21:07.020Z,1012.69
2019-02-19T16:23:00.014Z,1012.70
2019-02-19T16:24:00.076Z,1012.76
2019-02-19T16:25:53.098Z,1012.69
2019-02-19T16:26:53.106Z,1012.71
2019-02-19T16:28:46.098Z,1012.74
2019-02-19T16:29:46.153Z,1012.75
2019-02-19T16:31:39.129Z,1012.77
2019-02-19T16:32:39.186Z,1012.74
2019-02-19T16:34:32.168Z,1012.77
2019-02-19T16:35:32.219Z,1012.74
2019-02-19T16:37:25.198Z,1012.79
2019-02-19T16:38:25.254Z,1012.74
2019-02-19T16:40:18.256Z,1012.72
2019-02-19T16:41:18.310Z,1012.74
2019-02-19T16:43:11.301Z,1012.70
2019-02-19T16:44:11.360Z,1012.72
2019-02-19T16:46:04.334Z,1012.72
2019-02-19T16:47:04.397Z,1012.72
2019-02-19T16:48:57.402Z,1012.75
2019-02-19T16:50:06.873Z,1012.79
2019-02-19T16:51:50.431Z,1012.79
2019-02-19T16:52:50.486Z,1012.77
2019-02-19T16:54:43.486Z,1012.80
2019-02-19T16:55:43.537Z,1012.84
2019-02-19T16:57:36.533Z,1012.84
2019-02-19T16:58:36.589Z,1012.83
2019-02-19T17:00:29.592Z,1012.87
2019-02-19T17:01:29.635Z,1012.85
2019-02-19T17:03:22.628Z,1012.86
2019-02-19T17:04:22.665Z,1012.86
2019-02-19T17:06:15.644Z,1012.89
2019-02-19T17:07:15.724Z,1012.90
2019-02-19T17:09:08.709Z,1012.92
2019-02-19T17:10:08.774Z,1012.91
2019-02-19T17:12:01.756Z,1012.86
2019-02-19T17:13:01.804Z,1012.94
2019-02-19T17:14:54.827Z,1012.98
2019-02-19T17:15:54.843Z,1012.97
2019-02-19T17:17:47.834Z,1013.00
2019-02-19T17:18:47.874Z,1013.04
2019-02-19T17:20:40.870Z,1013.03
2019-02-19T17:21:40.911Z,1013.06
2019-02-19T17:23:33.900Z,1013.09
2019-02-19T17:24:33.950Z,1013.09
2019-02-19T17:26:26.931Z,1013.09